createdAt,value
2023-02-14T00:00:42.841Z,102148.88
2023-02-14T00:06:13.504Z,102146.63
2023-02-14T00:11:16.513Z,102146.78
2023-02-14T00:16:19.565Z,102155.18
2023-02-14T00:21:22.509Z,102161.21
2023-02-14T00:26:25.623Z,102167.92
2023-02-14T00:31:28.655Z,102171.97
2023-02-14T00:36:32.035Z,102176.90
2023-02-14T00:41:35.044Z,102177.62
2023-02-14T00:46:37.889Z,102181.41
2023-02-14T00:51:40.929Z,102179.92
2023-02-14T00:56:43.884Z,102172.85
2023-02-14T01:01:46.771Z,102176.23
2023-02-14T01:06:49.720Z,102179.27
2023-02-14T01:11:52.609Z,102177.41
2023-02-14T01:17:00.324Z,102162.36
2023-02-14T01:22:03.181Z,102172.19
2023-02-14T01:27:06.530Z,102169.42
2023-02-14T01:32:09.677Z,102173.83
2023-02-14T01:37:12.567Z,102175.52
2023-02-14T01:42:15.423Z,102176.77
2023-02-14T01:47:20.427Z,102176.15
2023-02-14T01:52:35.236Z,102185.98
2023-02-14T01:57:49.177Z,102184.30
2023-02-14T02:02:52.040Z,102180.59
2023-02-14T02:07:57.210Z,102174.73
2023-02-14T02:13:03.879Z,102170.72
2023-02-14T02:18:22.292Z,102179.27
2023-02-14T02:23:57.444Z,102190.36
2023-02-14T02:29:20.584Z,102186.91
2023-02-14T02:34:45.759Z,102192.27
2023-02-14T02:40:20.900Z,102200.88
2023-02-14T02:45:33.098Z,102202.98
2023-02-14T02:51:04.909Z,102200.83
2023-02-14T02:56:46.733Z,102196.78
2023-02-14T03:02:16.299Z,102207.73
2023-02-14T03:07:39.202Z,102206.73
2023-02-14T03:13:19.239Z,102210.73
2023-02-14T03:19:21.362Z,102217.81
2023-02-14T03:24:45.251Z,102220.91
2023-02-14T03:30:21.873Z,102221.92
2023-02-14T03:35:30.921Z,102224.77
2023-02-14T03:40:45.229Z,102225.23
2023-02-14T03:45:54.595Z,102228.83
2023-02-14T03:50:57.743Z,102220.77
2023-02-14T03:56:12.793Z,102222.34
2023-02-14T04:01:30.097Z,102223.04
2023-02-14T04:06:33.244Z,102230.05
2023-02-14T04:11:36.155Z,102228.51
2023-02-14T04:16:57.945Z,102221.16
2023-02-14T04:22:00.930Z,102218.04
2023-02-14T04:27:10.569Z,102221.70
2023-02-14T04:32:18.851Z,102229.41
2023-02-14T04:37:22.027Z,102232.71
2023-02-14T04:42:25.027Z,102241.10
2023-02-14T04:47:28.013Z,102243.30
2023-02-14T04:52:30.840Z,102249.34
2023-02-14T04:57:33.860Z,102254.17
2023-02-14T05:02:37.143Z,102262.11
2023-02-14T05:07:40.050Z,102259.02
2023-02-14T05:12:43.451Z,102258.89
2023-02-14T05:17:46.465Z,102260.92
2023-02-14T05:22:49.375Z,102262.66
2023-02-14T05:27:52.806Z,102271.10
2023-02-14T05:32:55.883Z,102276.30
2023-02-14T05:37:58.772Z,102277.52
2023-02-14T05:43:02.941Z,102273.68
2023-02-14T05:48:06.227Z,102276.34
2023-02-14T05:53:09.672Z,102276.71
2023-02-14T05:58:12.669Z,102272.15
2023-02-14T06:03:15.602Z,102284.67
2023-02-14T06:08:18.477Z,102289.45
2023-02-14T06:13:21.472Z,102293.69
2023-02-14T06:18:28.570Z,102296.68
2023-02-14T06:23:31.520Z,102302.86
2023-02-14T06:28:34.996Z,102304.39
2023-02-14T06:33:38.962Z,102311.29
2023-02-14T06:38:41.931Z,102308.10
2023-02-14T06:43:45.556Z,102308.48
2023-02-14T06:48:48.517Z,102305.33
2023-02-14T06:53:52.042Z,102306.21
2023-02-14T06:58:55.023Z,102313.38
2023-02-14T07:03:57.920Z,102307.52
2023-02-14T07:09:00.810Z,102305.36
2023-02-14T07:14:03.675Z,102312.46
2023-02-14T07:19:09.617Z,102311.41
2023-02-14T07:24:15.096Z,102318.32
2023-02-14T07:29:18.229Z,102326.89
2023-02-14T07:34:21.212Z,102335.63
2023-02-14T07:39:24.108Z,102340.64
2023-02-14T07:44:27.328Z,102337.91
2023-02-14T07:49:31.400Z,102345.20
2023-02-14T07:54:34.436Z,102353.77
2023-02-14T07:59:37.522Z,102357.48
2023-02-14T08:04:40.494Z,102363.55
2023-02-14T08:09:43.428Z,102370.55
2023-02-14T08:14:46.398Z,102379.60
2023-02-14T08:19:49.353Z,102384.02
2023-02-14T08:24:52.380Z,102385.27
2023-02-14T08:29:55.206Z,102382.30
2023-02-14T08:34:58.168Z,102382.14
2023-02-14T08:40:01.104Z,102382.11
2023-02-14T08:45:04.757Z,102380.55
2023-02-14T08:50:13.737Z,102389.16
2023-02-14T08:55:16.758Z,102394.55
2023-02-14T09:00:20.955Z,102396.54
2023-02-14T09:05:23.896Z,102390.52
2023-02-14T09:10:28.623Z,102395.08
2023-02-14T09:15:31.886Z,102397.70
2023-02-14T09:20:34.796Z,102392.29
2023-02-14T09:25:38.085Z,102391.38
2023-02-14T09:30:40.922Z,102391.23
2023-02-14T09:35:44.207Z,102397.38
2023-02-14T09:40:47.200Z,102398.20
2023-02-14T09:45:53.362Z,102401.88
2023-02-14T09:50:59.881Z,102403.77
2023-02-14T09:56:50.561Z,102410.23
2023-02-14T10:02:00.478Z,102407.02
2023-02-14T10:07:26.648Z,102408.60
2023-02-14T10:12:34.060Z,102405.23
2023-02-14T10:17:42.391Z,102409.80
2023-02-14T10:23:19.695Z,102402.57
2023-02-14T10:28:46.922Z,102402.13
2023-02-14T10:33:57.493Z,102399.66
2023-02-14T10:39:35.201Z,102404.29
2023-02-14T10:45:12.668Z,102397.10
2023-02-14T10:50:31.032Z,102403.10
2023-02-14T10:55:48.984Z,102406.98
2023-02-14T11:01:04.066Z,102403.48
2023-02-14T11:06:09.799Z,102401.14
2023-02-14T11:11:24.766Z,102405.75
2023-02-14T11:16:37.287Z,102402.68
2023-02-14T11:21:42.904Z,102396.33
2023-02-14T11:26:48.925Z,102393.05
2023-02-14T11:31:57.459Z,102393.32
2023-02-14T11:37:01.530Z,102396.39
2023-02-14T11:42:05.987Z,102392.91
2023-02-14T11:47:32.524Z,102396.05
2023-02-14T11:52:35.894Z,102385.85
2023-02-14T11:57:38.799Z,102378.23
2023-02-14T12:02:46.526Z,102363.33
2023-02-14T12:07:51.809Z,102366.05
2023-02-14T12:13:10.075Z,102365.78
2023-02-14T12:18:49.391Z,102365.50
2023-02-14T12:24:13.381Z,102358.34
2023-02-14T12:29:52.320Z,102361.79
2023-02-14T12:35:14.136Z,102355.45
2023-02-14T12:40:42.011Z,102357.16
2023-02-14T12:46:19.031Z,102350.46
2023-02-14T12:51:47.542Z,102347.04
2023-02-14T12:57:28.080Z,102343.65
2023-02-14T13:03:02.492Z,102345.10
2023-02-14T13:08:18.925Z,102345.23
2023-02-14T13:14:09.373Z,102345.20
2023-02-14T13:19:45.703Z,102348.19
2023-02-14T13:24:51.608Z,102345.25
2023-02-14T13:29:58.930Z,102348.68
2023-02-14T13:35:01.810Z,102349.78
2023-02-14T13:40:16.075Z,102350.91
2023-02-14T13:45:49.174Z,102355.38
2023-02-14T13:50:56.850Z,102353.66
2023-02-14T13:56:00.448Z,102347.38
2023-02-14T14:01:50.148Z,102351.45
2023-02-14T14:07:05.439Z,102344.30
2023-02-14T14:12:26.911Z,102343.55
2023-02-14T14:17:29.806Z,102337.52
2023-02-14T14:22:32.717Z,102336.64
2023-02-14T14:27:41.033Z,102338.94
2023-02-14T14:32:45.472Z,102341.80
2023-02-14T14:37:54.607Z,102346.17
2023-02-14T14:43:30.635Z,102347.10
2023-02-14T14:48:54.650Z,102345.96
2023-02-14T14:53:59.733Z,102352.66
2023-02-14T14:59:35.651Z,102349.86
2023-02-14T15:04:38.661Z,102349.30
2023-02-14T15:09:44.734Z,102345.65
2023-02-14T15:14:54.521Z,102346.57
2023-02-14T15:20:03.370Z,102345.70
2023-02-14T15:25:33.789Z,102350.21
2023-02-14T15:30:41.234Z,102355.47
2023-02-14T15:35:44.243Z,102355.29
2023-02-14T15:40:48.459Z,102354.57
2023-02-14T15:45:52.765Z,102360.50
2023-02-14T15:50:58.997Z,102360.88
2023-02-14T15:56:26.754Z,102362.02
2023-02-14T16:01:30.966Z,102365.13
2023-02-14T16:06:44.744Z,102367.67
2023-02-14T16:11:48.746Z,102368.01
2023-02-14T16:17:24.209Z,102375.92
2023-02-14T16:22:38.333Z,102376.74
2023-02-14T16:27:41.322Z,102382.73
2023-02-14T16:32:50.213Z,102388.86
2023-02-14T16:37:53.283Z,102385.50
2023-02-14T16:42:56.158Z,102395.16
2023-02-14T16:47:59.241Z,102398.64
2023-02-14T16:53:02.755Z,102394.70
2023-02-14T16:58:05.667Z,102397.91
2023-02-14T17:03:11.680Z,102397.94
2023-02-14T17:08:15.329Z,102399.93
2023-02-14T17:13:20.756Z,102409.38
2023-02-14T17:18:24.142Z,102406.70
2023-02-14T17:23:27.505Z,102412.81
2023-02-14T17:28:30.417Z,102415.77
2023-02-14T17:33:34.184Z,102417.77
2023-02-14T17:38:37.168Z,102420.30
2023-02-14T17:43:40.072Z,102423.54
2023-02-14T17:48:45.583Z,102425.11
2023-02-14T17:53:49.031Z,102424.25
2023-02-14T17:58:52.706Z,102422.08
2023-02-14T18:03:55.696Z,102421.32
2023-02-14T18:08:58.602Z,102423.93
2023-02-14T18:14:01.820Z,102418.59
2023-02-14T18:19:05.760Z,102417.89
2023-02-14T18:24:10.303Z,102414.79
2023-02-14T18:29:13.371Z,102415.92
2023-02-14T18:34:17.661Z,102420.17
2023-02-14T18:39:20.949Z,102418.23
2023-02-14T18:44:29.536Z,102416.95
2023-02-14T18:49:32.729Z,102414.62
2023-02-14T18:54:35.560Z,102411.99
2023-02-14T18:59:39.286Z,102416.26
2023-02-14T19:04:43.660Z,102413.70
2023-02-14T19:09:46.623Z,102412.98
2023-02-14T19:14:49.805Z,102408.64
2023-02-14T19:19:53.900Z,102407.29
2023-02-14T19:24:56.977Z,102405.20
2023-02-14T19:30:01.314Z,102412.39
2023-02-14T19:35:04.513Z,102416.29
2023-02-14T19:40:10.281Z,102420.01
2023-02-14T19:45:14.296Z,102422.11
2023-02-14T19:50:19.421Z,102421.87
2023-02-14T19:55:23.399Z,102422.17
2023-02-14T20:00:28.157Z,102421.27
2023-02-14T20:05:31.181Z,102424.02
2023-02-14T20:10:34.113Z,102422.80
2023-02-14T20:15:37.597Z,102423.49
2023-02-14T20:21:02.197Z,102420.35
2023-02-14T20:26:05.350Z,102422.82
2023-02-14T20:31:10.670Z,102417.42
2023-02-14T20:36:14.174Z,102412.92
2023-02-14T20:41:17.092Z,102416.85
2023-02-14T20:46:20.241Z,102415.48
2023-02-14T20:51:23.597Z,102416.83
2023-02-14T20:56:26.567Z,102417.41
2023-02-14T21:01:29.978Z,102417.02
2023-02-14T21:06:34.898Z,102422.77
2023-02-14T21:11:38.322Z,102425.79
2023-02-14T21:16:41.168Z,102428.95
2023-02-14T21:21:44.117Z,102431.91
2023-02-14T21:26:48.468Z,102432.07
2023-02-14T21:31:51.531Z,102428.16
2023-02-14T21:36:56.337Z,102431.50
2023-02-14T21:42:00.995Z,102437.69
2023-02-14T21:47:04.174Z,102431.19
2023-02-14T21:52:07.380Z,102434.99
2023-02-14T21:57:10.185Z,102433.31
2023-02-14T22:02:13.054Z,102435.67
2023-02-14T22:07:15.933Z,102434.02
2023-02-14T22:12:18.781Z,102435.21
2023-02-14T22:17:23.647Z,102425.98
2023-02-14T22:22:26.725Z,102424.13
2023-02-14T22:27:30.478Z,102423.19
2023-02-14T22:32:34.113Z,102420.78
2023-02-14T22:37:37.285Z,102413.88
2023-02-14T22:42:40.131Z,102416.38
2023-02-14T22:47:44.423Z,102425.08
2023-02-14T22:52:47.319Z,102420.41
2023-02-14T22:57:50.258Z,102422.63
2023-02-14T23:02:53.117Z,102421.08
2023-02-14T23:07:56.141Z,102420.13
2023-02-14T23:13:17.780Z,102419.83
2023-02-14T23:18:39.374Z,102419.70
2023-02-14T23:23:42.215Z,102415.67
2023-02-14T23:28:45.071Z,102410.44
2023-02-14T23:33:52.063Z,102409.24
2023-02-14T23:38:54.931Z,102411.04
2023-02-14T23:43:57.912Z,102407.18
2023-02-14T23:49:00.843Z,102412.55
2023-02-14T23:54:04.248Z,102412.67
2023-02-14T23:59:07.651Z,102413.05
